Time;durP1;ratioP1;P1;durP2;ratioP2;P2;SDS_P1;SDS_P2;PMS_P1;PMS_P2;Temp;Humidity;BMP_temperature;BMP_pressure;BME280_temperature;BME280_humidity;BME280_pressure;Samples;Min_cycle;Max_cycle;Signal;HPM_P1;HPM_P2
2021/11/15 00:02:19;;;;;;;22.58;13.40;;;;;;;;;;5074913;28;20222;-66
2021/11/15 00:04:48;;;;;;;17.73;11.80;;;;;;;;;;5074201;28;20186;-66
2021/11/15 00:07:20;;;;;;;15.38;10.93;;;;;;;;;;5074432;28;20671;-67
2021/11/15 00:09:53;;;;;;;19.55;12.50;;;;;;;;;;5074124;28;20191;-66
2021/11/15 00:12:26;;;;;;;18.20;11.23;;;;;;;;;;5074339;28;20222;-67
2021/11/15 00:14:59;;;;;;;16.63;12.20;;;;;;;;;;5073625;28;20252;-67
2021/11/15 00:17:27;;;;;;;19.30;12.13;;;;;;;;;;5074334;28;20526;-67
2021/11/15 00:19:55;;;;;;;23.95;13.20;;;;;;;;;;5073525;28;20187;-67
2021/11/15 00:22:23;;;;;;;17.45;11.45;;;;;;;;;;5073569;28;20249;-66
2021/11/15 00:24:58;;;;;;;18.77;13.40;;;;;;;;;;5073957;28;20220;-68
2021/11/15 00:27:31;;;;;;;21.70;12.55;;;;;;;;;;5073861;28;20300;-67
2021/11/15 00:30:00;;;;;;;16.20;11.95;;;;;;;;;;5074094;28;20193;-67
2021/11/15 00:32:27;;;;;;;16.00;10.45;;;;;;;;;;5073517;28;20640;-67
2021/11/15 00:34:56;;;;;;;18.88;12.88;;;;;;;;;;5073816;28;20190;-67
2021/11/15 00:37:25;;;;;;;19.40;12.55;;;;;;;;;;5073563;28;20182;-67
2021/11/15 00:39:53;;;;;;;20.60;12.30;;;;;;;;;;5073884;28;20186;-67
2021/11/15 00:42:22;;;;;;;21.95;12.65;;;;;;;;;;5073131;28;20217;-66
2021/11/15 00:44:53;;;;;;;18.75;12.43;;;;;;;;;;5073516;28;20190;-67
2021/11/15 00:47:21;;;;;;;14.70;11.07;;;;;;;;;;5073205;28;20584;-67
2021/11/15 00:49:52;;;;;;;20.23;12.93;;;;;;;;;;5073378;28;20285;-67
2021/11/15 00:52:20;;;;;;;18.40;12.50;;;;;;;;;;5073288;28;20543;-67
2021/11/15 00:54:50;;;;;;;23.90;13.18;;;;;;;;;;5073501;28;20666;-67
2021/11/15 00:57:17;;;;;;;21.80;14.15;;;;;;;;;;5073124;28;20182;-67
2021/11/15 00:59:48;;;;;;;17.55;11.73;;;;;;;;;;5073415;28;20549;-66
2021/11/15 01:02:22;;;;;;;17.58;11.77;;;;;;;;;;5072736;28;20227;-66
2021/11/15 01:04:49;;;;;;;19.98;12.88;;;;;;;;;;5073302;28;20281;-67
2021/11/15 01:07:17;;;;;;;20.23;11.77;;;;;;;;;;5072813;28;20659;-67
2021/11/15 01:09:52;;;;;;;19.08;11.85;;;;;;;;;;5073117;28;20597;-67
2021/11/15 01:12:20;;;;;;;17.98;12.20;;;;;;;;;;5072486;28;20692;-67
2021/11/15 01:14:50;;;;;;;18.17;11.82;;;;;;;;;;5073367;28;20251;-66
2021/11/15 01:17:21;;;;;;;18.10;13.10;;;;;;;;;;5072627;28;20660;-67
2021/11/15 01:19:50;;;;;;;19.08;11.35;;;;;;;;;;5073331;28;20222;-66
2021/11/15 01:22:19;;;;;;;15.95;11.07;;;;;;;;;;5072299;28;20218;-67
2021/11/15 01:24:47;;;;;;;16.77;11.40;;;;;;;;;;5073073;28;20195;-67
2021/11/15 01:27:16;;;;;;;22.80;13.00;;;;;;;;;;5072030;28;20213;-67
2021/11/15 01:29:47;;;;;;;14.02;9.43;;;;;;;;;;5072818;28;20204;-67
2021/11/15 01:32:16;;;;;;;19.13;12.52;;;;;;;;;;5072819;28;20194;-67
2021/11/15 01:34:43;;;;;;;15.27;10.02;;;;;;;;;;5072538;28;20186;-67
2021/11/15 01:37:11;;;;;;;15.93;11.07;;;;;;;;;;5072622;28;20186;-66
2021/11/15 01:39:38;;;;;;;15.88;11.50;;;;;;;;;;5072151;28;20198;-66
2021/11/15 01:42:09;;;;;;;14.27;9.25;;;;;;;;;;5072422;28;20226;-66
2021/11/15 01:44:37;;;;;;;17.85;10.60;;;;;;;;;;5072088;28;20194;-67
2021/11/15 01:47:22;;;;;;;18.38;11.00;;;;;;;;;;5072102;28;20248;-66
2021/11/15 01:49:55;;;;;;;15.00;10.73;;;;;;;;;;5072104;28;20244;-67
2021/11/15 01:52:24;;;;;;;19.85;12.20;;;;;;;;;;5072142;28;20198;-67
2021/11/15 01:54:52;;;;;;;16.67;11.07;;;;;;;;;;5071946;28;20218;-67
2021/11/15 01:57:19;;;;;;;15.52;10.93;;;;;;;;;;5072309;28;20202;-67
2021/11/15 01:59:50;;;;;;;15.68;10.82;;;;;;;;;;5071854;28;20220;-66
2021/11/15 02:02:26;;;;;;;16.02;9.77;;;;;;;;;;5071912;28;20218;-67
2021/11/15 02:04:58;;;;;;;17.13;9.95;;;;;;;;;;5071615;28;20315;-67
2021/11/15 02:07:26;;;;;;;17.80;10.65;;;;;;;;;;5071695;28;20198;-67
2021/11/15 02:09:54;;;;;;;17.20;10.73;;;;;;;;;;5071510;28;20187;-67
2021/11/15 02:12:23;;;;;;;15.95;11.63;;;;;;;;;;5071337;28;20218;-68
2021/11/15 02:14:51;;;;;;;20.42;10.55;;;;;;;;;;5071389;28;20190;-67
2021/11/15 02:17:24;;;;;;;16.60;11.70;;;;;;;;;;5072081;28;20499;-67
2021/11/15 02:19:54;;;;;;;18.63;10.82;;;;;;;;;;5071457;28;20189;-67
2021/11/15 02:22:23;;;;;;;17.02;11.00;;;;;;;;;;5071200;28;20218;-67
2021/11/15 02:24:50;;;;;;;16.70;10.85;;;;;;;;;;5071747;28;20629;-67
2021/11/15 02:27:22;;;;;;;14.95;9.60;;;;;;;;;;5071950;28;20190;-67
2021/11/15 02:29:49;;;;;;;12.85;9.88;;;;;;;;;;5071504;28;20542;-67
2021/11/15 02:32:20;;;;;;;14.50;10.38;;;;;;;;;;5071941;28;20194;-67
2021/11/15 02:34:48;;;;;;;17.55;11.40;;;;;;;;;;5071443;28;20190;-67
2021/11/15 02:37:20;;;;;;;17.63;11.15;;;;;;;;;;5071886;28;20206;-67
2021/11/15 02:39:49;;;;;;;16.58;10.50;;;;;;;;;;5071385;28;20685;-67
2021/11/15 02:42:17;;;;;;;15.68;10.10;;;;;;;;;;5071811;28;20715;-67
2021/11/15 02:44:45;;;;;;;15.68;9.82;;;;;;;;;;5071739;28;20485;-67
2021/11/15 02:47:12;;;;;;;18.98;10.30;;;;;;;;;;5071916;28;20551;-66
2021/11/15 02:49:47;;;;;;;13.90;9.43;;;;;;;;;;5070938;28;20182;-67
2021/11/15 02:52:17;;;;;;;17.35;11.43;;;;;;;;;;5071662;28;20518;-67
2021/11/15 02:54:45;;;;;;;15.43;10.48;;;;;;;;;;5071850;28;20193;-67
2021/11/15 02:57:18;;;;;;;11.90;8.98;;;;;;;;;;5071337;28;20189;-67
2021/11/15 02:59:46;;;;;;;13.98;10.45;;;;;;;;;;5071866;28;20236;-67
2021/11/15 03:02:16;;;;;;;14.65;10.02;;;;;;;;;;5071682;28;20574;-66
2021/11/15 03:04:46;;;;;;;13.48;9.80;;;;;;;;;;5071741;28;20190;-67
2021/11/15 03:07:17;;;;;;;13.38;9.40;;;;;;;;;;5071158;28;20229;-66
2021/11/15 03:09:44;;;;;;;13.57;9.30;;;;;;;;;;5071752;28;20190;-66
2021/11/15 03:12:12;;;;;;;19.20;10.95;;;;;;;;;;5070939;28;20351;-67
2021/11/15 03:14:44;;;;;;;20.90;10.30;;;;;;;;;;5071567;28;20263;-66
2021/11/15 03:17:12;;;;;;;15.52;10.52;;;;;;;;;;5070777;28;20186;-67
2021/11/15 03:19:39;;;;;;;15.00;10.40;;;;;;;;;;5071328;28;20198;-67
2021/11/15 03:22:07;;;;;;;22.38;11.52;;;;;;;;;;5070935;28;20218;-67
2021/11/15 03:24:35;;;;;;;13.10;8.98;;;;;;;;;;5071240;28;20195;-66
2021/11/15 03:27:11;;;;;;;16.92;10.88;;;;;;;;;;5071144;28;20209;-67
2021/11/15 03:29:39;;;;;;;14.68;10.00;;;;;;;;;;5071329;28;20189;-67
2021/11/15 03:32:09;;;;;;;16.08;10.20;;;;;;;;;;5071762;28;20285;-67
2021/11/15 03:34:36;;;;;;;16.80;9.95;;;;;;;;;;5074864;28;20194;-67
2021/11/15 03:37:05;;;;;;;19.08;11.15;;;;;;;;;;5074375;28;20217;-66
2021/11/15 03:39:38;;;;;;;16.80;11.00;;;;;;;;;;5074919;28;20190;-67
2021/11/15 03:42:05;;;;;;;15.88;10.70;;;;;;;;;;5074556;28;20202;-66
2021/11/15 03:44:33;;;;;;;14.10;11.02;;;;;;;;;;5074923;28;20251;-67
2021/11/15 03:47:04;;;;;;;16.63;10.45;;;;;;;;;;5074853;28;20186;-67
2021/11/15 03:49:34;;;;;;;16.40;10.57;;;;;;;;;;5074751;28;20194;-66
2021/11/15 03:52:09;;;;;;;15.38;10.65;;;;;;;;;;5074258;28;20217;-67
2021/11/15 03:54:37;;;;;;;17.42;10.20;;;;;;;;;;5074819;28;20616;-67
2021/11/15 03:57:07;;;;;;;20.23;11.02;;;;;;;;;;5074248;28;20641;-67
2021/11/15 03:59:35;;;;;;;14.50;10.02;;;;;;;;;;5074571;28;20278;-67
2021/11/15 04:02:02;;;;;;;16.67;11.60;;;;;;;;;;5074327;28;20548;-67
2021/11/15 04:04:38;;;;;;;16.83;9.25;;;;;;;;;;5074469;28;20198;-67
2021/11/15 04:07:11;;;;;;;17.75;9.70;;;;;;;;;;5074307;28;20660;-67
2021/11/15 04:09:40;;;;;;;17.30;11.15;;;;;;;;;;5074281;28;20599;-67
2021/11/15 04:12:11;;;;;;;17.25;10.43;;;;;;;;;;5074418;28;20759;-66
2021/11/15 04:14:38;;;;;;;18.48;11.00;;;;;;;;;;5074169;28;20244;-67
2021/11/15 04:17:12;;;;;;;18.40;10.80;;;;;;;;;;5074472;28;20739;-67
2021/11/15 04:19:39;;;;;;;17.98;10.70;;;;;;;;;;5074073;28;20241;-67
2021/11/15 04:22:08;;;;;;;17.20;10.30;;;;;;;;;;5054256;28;20713;-67
2021/11/15 04:24:36;;;;;;;16.63;11.35;;;;;;;;;;5054175;28;20662;-66
2021/11/15 04:27:09;;;;;;;14.82;10.07;;;;;;;;;;5073670;28;20196;-67
2021/11/15 04:29:37;;;;;;;19.15;12.90;;;;;;;;;;5074176;28;20197;-67
2021/11/15 04:32:05;;;;;;;15.88;10.95;;;;;;;;;;5073890;28;20675;-67
2021/11/15 04:34:33;;;;;;;17.85;11.10;;;;;;;;;;5073965;28;20200;-66
2021/11/15 04:37:00;;;;;;;17.30;11.18;;;;;;;;;;5073592;28;20186;-67
2021/11/15 04:39:29;;;;;;;15.00;10.73;;;;;;;;;;5073976;28;20558;-66
2021/11/15 04:41:57;;;;;;;21.27;11.65;;;;;;;;;;5073671;28;20205;-66
2021/11/15 04:44:25;;;;;;;17.10;10.57;;;;;;;;;;5073035;28;20190;-67
2021/11/15 04:46:53;;;;;;;16.02;11.05;;;;;;;;;;5073301;28;20183;-67
2021/11/15 04:49:28;;;;;;;16.70;10.73;;;;;;;;;;5074001;28;20259;-66
2021/11/15 04:52:01;;;;;;;14.75;10.57;;;;;;;;;;5073465;28;20318;-66
2021/11/15 04:54:29;;;;;;;16.10;8.98;;;;;;;;;;5073427;28;20187;-66
2021/11/15 04:57:04;;;;;;;18.20;11.15;;;;;;;;;;5073384;28;20236;-67
2021/11/15 04:59:32;;;;;;;15.77;10.18;;;;;;;;;;5073872;28;20685;-66
2021/11/15 05:02:00;;;;;;;16.00;10.40;;;;;;;;;;5072933;28;20193;-66
2021/11/15 05:04:27;;;;;;;16.23;10.05;;;;;;;;;;5073459;28;20661;-66
2021/11/15 05:06:57;;;;;;;16.50;10.73;;;;;;;;;;5073229;28;20327;-66
2021/11/15 05:09:27;;;;;;;20.48;11.02;;;;;;;;;;5073253;28;20194;-67
2021/11/15 05:11:56;;;;;;;15.20;10.60;;;;;;;;;;5072699;28;20276;-66
2021/11/15 05:14:24;;;;;;;13.68;9.27;;;;;;;;;;5072949;28;20226;-66
2021/11/15 05:16:55;;;;;;;17.83;11.05;;;;;;;;;;5073064;28;20269;-66
2021/11/15 05:19:26;;;;;;;15.65;9.20;;;;;;;;;;5073487;28;20270;-66
2021/11/15 05:21:55;;;;;;;16.55;10.68;;;;;;;;;;5072556;28;20633;-67
2021/11/15 05:24:28;;;;;;;18.38;10.85;;;;;;;;;;5073109;28;20343;-66
2021/11/15 05:26:57;;;;;;;21.33;11.35;;;;;;;;;;5072611;28;20194;-66
2021/11/15 05:29:25;;;;;;;16.05;10.45;;;;;;;;;;5072866;28;20190;-66
2021/11/15 05:31:57;;;;;;;15.63;11.02;;;;;;;;;;5073201;28;20557;-66
2021/11/15 05:34:31;;;;;;;15.40;9.63;;;;;;;;;;5072088;28;20186;-67
2021/11/15 05:36:59;;;;;;;17.42;11.77;;;;;;;;;;5072721;28;20186;-66
2021/11/15 05:39:28;;;;;;;13.95;10.55;;;;;;;;;;5072619;28;20281;-66
2021/11/15 05:41:58;;;;;;;17.88;10.05;;;;;;;;;;5072568;28;20178;-66
2021/11/15 05:44:29;;;;;;;15.15;9.95;;;;;;;;;;5072711;28;20229;-66
2021/11/15 05:46:56;;;;;;;13.52;9.75;;;;;;;;;;5072398;28;20186;-67
2021/11/15 05:49:26;;;;;;;16.52;9.98;;;;;;;;;;5072592;28;20190;-66
2021/11/15 05:52:00;;;;;;;12.95;9.25;;;;;;;;;;5072142;28;20198;-67
2021/11/15 05:54:28;;;;;;;14.00;9.40;;;;;;;;;;5072508;28;20657;-66
2021/11/15 05:56:56;;;;;;;14.82;9.90;;;;;;;;;;5070708;28;20188;-66
2021/11/15 05:59:27;;;;;;;15.75;10.20;;;;;;;;;;5072626;28;20244;-66
2021/11/15 06:01:58;;;;;;;14.23;9.45;;;;;;;;;;5072045;28;20190;-66
2021/11/15 06:04:27;;;;;;;14.32;9.00;;;;;;;;;;5072325;28;20222;-67
2021/11/15 06:06:56;;;;;;;16.65;10.25;;;;;;;;;;5071666;28;20226;-67
2021/11/15 06:09:23;;;;;;;14.50;10.98;;;;;;;;;;5072398;28;20190;-67
2021/11/15 06:11:59;;;;;;;14.90;10.45;;;;;;;;;;5072003;28;20221;-66
2021/11/15 06:14:28;;;;;;;12.40;9.52;;;;;;;;;;5072465;28;20197;-67
2021/11/15 06:16:56;;;;;;;14.38;9.70;;;;;;;;;;5071889;28;20546;-66
2021/11/15 06:19:29;;;;;;;12.50;9.23;;;;;;;;;;5072344;28;20198;-66
2021/11/15 06:21:58;;;;;;;13.80;9.07;;;;;;;;;;5071717;28;20189;-66
2021/11/15 06:24:26;;;;;;;13.65;9.40;;;;;;;;;;5069215;28;20217;-67
2021/11/15 06:26:55;;;;;;;12.77;8.90;;;;;;;;;;5069521;28;20668;-66
2021/11/15 06:29:30;;;;;;;13.88;9.90;;;;;;;;;;5069682;28;20273;-67
2021/11/15 06:32:03;;;;;;;17.90;10.07;;;;;;;;;;5070926;28;20610;-66
2021/11/15 06:34:33;;;;;;;15.75;9.90;;;;;;;;;;5069521;28;20182;-68
2021/11/15 06:37:07;;;;;;;15.50;9.85;;;;;;;;;;5070747;28;20202;-66
2021/11/15 06:39:38;;;;;;;12.43;7.95;;;;;;;;;;5070023;28;20201;-66
2021/11/15 06:42:06;;;;;;;11.70;7.25;;;;;;;;;;5069846;28;20230;-66
2021/11/15 06:44:35;;;;;;;13.40;9.40;;;;;;;;;;5069914;28;20214;-67
2021/11/15 06:47:03;;;;;;;13.57;7.40;;;;;;;;;;5070025;28;20186;-66
2021/11/15 06:49:31;;;;;;;12.50;7.55;;;;;;;;;;5069857;28;20193;-66
2021/11/15 06:51:58;;;;;;;10.43;8.00;;;;;;;;;;5070107;28;20205;-66
2021/11/15 06:54:25;;;;;;;17.15;8.02;;;;;;;;;;5070279;28;20328;-66
2021/11/15 06:56:53;;;;;;;11.25;8.05;;;;;;;;;;5070265;28;20300;-66
2021/11/15 06:59:23;;;;;;;13.35;7.50;;;;;;;;;;5069989;28;20189;-66
2021/11/15 07:01:52;;;;;;;11.82;7.75;;;;;;;;;;5070019;28;20198;-67
2021/11/15 07:04:20;;;;;;;12.20;7.95;;;;;;;;;;5069852;28;20218;-66
2021/11/15 07:06:47;;;;;;;9.02;7.18;;;;;;;;;;5069837;28;20866;-67
2021/11/15 07:09:15;;;;;;;15.93;8.60;;;;;;;;;;5074142;28;20198;-66
2021/11/15 07:11:42;;;;;;;12.70;8.30;;;;;;;;;;5073882;28;20931;-66
2021/11/15 07:14:09;;;;;;;12.57;7.90;;;;;;;;;;5074145;28;20186;-66
2021/11/15 07:16:37;;;;;;;14.20;7.82;;;;;;;;;;5072936;28;20190;-65
2021/11/15 07:19:05;;;;;;;11.63;6.18;;;;;;;;;;5067335;28;20202;-66
2021/11/15 07:21:33;;;;;;;12.93;6.80;;;;;;;;;;5073372;28;20653;-66
2021/11/15 07:24:01;;;;;;;11.38;7.53;;;;;;;;;;5074268;28;20214;-66
2021/11/15 07:26:28;;;;;;;9.30;6.30;;;;;;;;;;5072745;28;20197;-66
2021/11/15 07:28:56;;;;;;;12.20;7.60;;;;;;;;;;5073376;28;20554;-66
2021/11/15 07:31:24;;;;;;;10.93;7.90;;;;;;;;;;5073390;28;20198;-66
2021/11/15 07:33:52;;;;;;;10.77;6.45;;;;;;;;;;5072837;28;20506;-67
2021/11/15 07:36:20;;;;;;;11.88;7.50;;;;;;;;;;5073391;28;20280;-67
2021/11/15 07:38:48;;;;;;;8.85;6.47;;;;;;;;;;5072557;28;20236;-68
2021/11/15 07:41:15;;;;;;;8.55;6.45;;;;;;;;;;5073130;28;20284;-67
2021/11/15 07:43:42;;;;;;;9.27;5.88;;;;;;;;;;5067660;28;20252;-67
2021/11/15 07:46:10;;;;;;;12.20;7.70;;;;;;;;;;5072485;28;20274;-66
2021/11/15 07:48:37;;;;;;;9.68;6.70;;;;;;;;;;5071608;28;20190;-66
2021/11/15 07:51:04;;;;;;;12.30;7.00;;;;;;;;;;5072778;28;20220;-67
2021/11/15 07:53:36;;;;;;;8.82;6.03;;;;;;;;;;5072907;28;20183;-66
2021/11/15 07:56:07;;;;;;;9.88;6.85;;;;;;;;;;5073812;28;20187;-66
2021/11/15 07:58:34;;;;;;;12.52;6.63;;;;;;;;;;5072684;28;20243;-68
2021/11/15 08:01:02;;;;;;;10.30;7.32;;;;;;;;;;5073462;28;20186;-66
2021/11/15 08:03:30;;;;;;;10.32;7.03;;;;;;;;;;5072533;28;20225;-67
2021/11/15 08:05:57;;;;;;;10.82;7.45;;;;;;;;;;5072329;28;20183;-67
2021/11/15 08:08:34;;;;;;;10.70;7.15;;;;;;;;;;5074498;28;20201;-68
2021/11/15 08:11:03;;;;;;;12.27;6.63;;;;;;;;;;5074848;28;20645;-66
2021/11/15 08:13:30;;;;;;;9.15;6.50;;;;;;;;;;5074706;28;20226;-67
2021/11/15 08:15:58;;;;;;;9.90;7.15;;;;;;;;;;5074981;28;20277;-67
2021/11/15 08:18:26;;;;;;;10.18;6.90;;;;;;;;;;5074164;28;20230;-67
2021/11/15 08:20:55;;;;;;;11.73;7.60;;;;;;;;;;5070816;28;20186;-67
2021/11/15 08:23:22;;;;;;;11.35;7.28;;;;;;;;;;5073578;28;20225;-67
2021/11/15 08:26:15;;;;;;;10.82;7.70;;;;;;;;;;5074733;28;20204;-67
2021/11/15 08:28:48;;;;;;;11.05;7.00;;;;;;;;;;5071022;28;20276;-66
2021/11/15 08:31:15;;;;;;;9.40;6.60;;;;;;;;;;5073554;28;20202;-66
2021/11/15 08:33:43;;;;;;;13.77;7.13;;;;;;;;;;5073748;28;20591;-67
2021/11/15 08:36:11;;;;;;;11.43;8.05;;;;;;;;;;5073898;28;20201;-67
2021/11/15 08:38:56;;;;;;;10.70;7.13;;;;;;;;;;5073827;28;20198;-66
2021/11/15 08:41:26;;;;;;;11.32;7.40;;;;;;;;;;5073336;28;20194;-67
2021/11/15 08:43:56;;;;;;;9.82;5.85;;;;;;;;;;5073667;28;20217;-67
2021/11/15 08:46:25;;;;;;;12.90;6.35;;;;;;;;;;5073532;28;20248;-67
2021/11/15 08:48:53;;;;;;;9.90;7.10;;;;;;;;;;5073698;28;20206;-67
2021/11/15 08:51:21;;;;;;;9.40;6.28;;;;;;;;;;5073112;28;20198;-66
2021/11/15 08:53:49;;;;;;;11.27;7.53;;;;;;;;;;5073383;28;20288;-67
2021/11/15 08:56:17;;;;;;;9.00;6.28;;;;;;;;;;5073126;28;20321;-67
2021/11/15 08:58:44;;;;;;;9.02;6.25;;;;;;;;;;5072873;28;20234;-67
2021/11/15 09:01:21;;;;;;;9.63;7.47;;;;;;;;;;5073054;28;20649;-68
2021/11/15 09:03:51;;;;;;;10.38;7.03;;;;;;;;;;5070502;28;20271;-67
2021/11/15 09:06:19;;;;;;;9.35;6.10;;;;;;;;;;5072574;28;20194;-67
2021/11/15 09:08:46;;;;;;;12.30;6.25;;;;;;;;;;5070090;28;20343;-67
2021/11/15 09:11:13;;;;;;;8.40;5.50;;;;;;;;;;5072032;28;20285;-68
2021/11/15 09:13:42;;;;;;;12.55;6.75;;;;;;;;;;5072492;28;20238;-67
2021/11/15 09:16:09;;;;;;;10.30;5.90;;;;;;;;;;5072403;28;20230;-66
2021/11/15 09:18:39;;;;;;;8.00;5.55;;;;;;;;;;5072250;28;20259;-67
2021/11/15 09:21:07;;;;;;;10.95;5.60;;;;;;;;;;5071996;28;20301;-67
2021/11/15 09:23:40;;;;;;;8.75;6.30;;;;;;;;;;5072172;28;20644;-67
2021/11/15 09:26:07;;;;;;;9.18;6.63;;;;;;;;;;5072173;28;20304;-67
2021/11/15 09:28:35;;;;;;;8.85;6.85;;;;;;;;;;5071969;28;20225;-67
2021/11/15 09:31:02;;;;;;;7.25;5.85;;;;;;;;;;5071261;28;20653;-67
2021/11/15 09:33:29;;;;;;;9.13;6.65;;;;;;;;;;5072121;28;20285;-67
2021/11/15 09:35:59;;;;;;;8.88;5.93;;;;;;;;;;5072046;28;20613;-66
2021/11/15 09:38:26;;;;;;;8.15;5.72;;;;;;;;;;5070624;28;20265;-67
2021/11/15 09:40:56;;;;;;;10.07;6.00;;;;;;;;;;5071445;28;20201;-65
2021/11/15 09:43:23;;;;;;;11.18;6.07;;;;;;;;;;5071811;28;20190;-66
2021/11/15 09:45:51;;;;;;;7.75;4.82;;;;;;;;;;5071632;28;20194;-68
2021/11/15 09:48:18;;;;;;;8.48;5.60;;;;;;;;;;5072025;28;20328;-67
2021/11/15 09:50:45;;;;;;;10.48;6.15;;;;;;;;;;5071646;28;20190;-68
2021/11/15 09:53:14;;;;;;;10.60;6.25;;;;;;;;;;5071892;28;20236;-67
2021/11/15 09:55:41;;;;;;;9.38;6.00;;;;;;;;;;5071877;28;20194;-67
2021/11/15 09:58:09;;;;;;;8.02;5.13;;;;;;;;;;5069153;28;20622;-68
2021/11/15 10:00:39;;;;;;;12.18;6.13;;;;;;;;;;5071371;28;20248;-67
2021/11/15 10:03:07;;;;;;;9.15;5.78;;;;;;;;;;5071684;28;20194;-67
2021/11/15 10:05:34;;;;;;;11.27;6.30;;;;;;;;;;5071757;28;20257;-67
2021/11/15 10:08:05;;;;;;;8.38;6.53;;;;;;;;;;5070803;28;20593;-67
2021/11/15 10:10:39;;;;;;;9.35;6.35;;;;;;;;;;5070796;28;20255;-67
2021/11/15 10:13:17;;;;;;;6.45;4.75;;;;;;;;;;5071327;28;20346;-67
2021/11/15 10:15:45;;;;;;;8.77;5.45;;;;;;;;;;5071356;28;20541;-67
2021/11/15 10:18:13;;;;;;;7.05;5.65;;;;;;;;;;5071236;28;20241;-67
2021/11/15 10:20:48;;;;;;;6.78;4.90;;;;;;;;;;5071071;28;20194;-68
2021/11/15 10:23:29;;;;;;;6.85;4.93;;;;;;;;;;5071497;28;20587;-67
2021/11/15 10:26:00;;;;;;;8.07;5.40;;;;;;;;;;5071229;28;20205;-66
2021/11/15 10:28:29;;;;;;;6.93;5.57;;;;;;;;;;5071530;28;20190;-66
2021/11/15 10:30:56;;;;;;;7.28;5.32;;;;;;;;;;5070982;28;20205;-67
2021/11/15 10:33:34;;;;;;;7.55;6.00;;;;;;;;;;5071496;28;20593;-66
2021/11/15 10:36:02;;;;;;;7.28;5.20;;;;;;;;;;5071440;28;20197;-66
2021/11/15 10:38:40;;;;;;;6.45;4.75;;;;;;;;;;5071561;28;20206;-66
2021/11/15 10:41:13;;;;;;;8.63;5.88;;;;;;;;;;5067926;28;20194;-66
2021/11/15 10:43:40;;;;;;;6.53;5.32;;;;;;;;;;5074999;28;20201;-67
2021/11/15 10:46:08;;;;;;;11.60;5.95;;;;;;;;;;5071855;28;20230;-66
2021/11/15 10:48:46;;;;;;;6.80;4.78;;;;;;;;;;5075236;28;20205;-66
2021/11/15 10:51:16;;;;;;;6.57;4.80;;;;;;;;;;5072191;28;20197;-66
2021/11/15 10:53:56;;;;;;;8.32;4.95;;;;;;;;;;5075391;28;20194;-66
2021/11/15 10:56:29;;;;;;;8.73;5.68;;;;;;;;;;5075430;28;20198;-66
2021/11/15 10:58:56;;;;;;;7.40;5.18;;;;;;;;;;5075215;28;20198;-68
2021/11/15 11:01:31;;;;;;;6.85;5.05;;;;;;;;;;5075203;28;20247;-66
2021/11/15 11:04:09;;;;;;;9.40;5.55;;;;;;;;;;5074909;28;20206;-66
2021/11/15 11:06:55;;;;;;;9.23;6.65;;;;;;;;;;5074510;28;20723;-66
2021/11/15 11:09:32;;;;;;;9.38;6.57;;;;;;;;;;5074401;28;20198;-66
2021/11/15 11:12:09;;;;;;;8.98;6.03;;;;;;;;;;5073583;28;20253;-66
2021/11/15 11:14:37;;;;;;;8.50;5.82;;;;;;;;;;5074044;28;21087;-66
2021/11/15 11:17:06;;;;;;;8.18;6.47;;;;;;;;;;5075042;28;21168;-66
2021/11/15 11:19:36;;;;;;;6.75;4.90;;;;;;;;;;5074957;28;20205;-66
2021/11/15 11:22:25;;;;;;;10.05;6.22;;;;;;;;;;5074063;28;20198;-66
2021/11/15 11:25:09;;;;;;;7.65;5.78;;;;;;;;;;5074483;28;20325;-68
2021/11/15 11:27:38;;;;;;;7.65;5.88;;;;;;;;;;5074186;28;20201;-66
2021/11/15 11:30:08;;;;;;;11.20;6.40;;;;;;;;;;5074533;28;20209;-66
2021/11/15 11:32:35;;;;;;;8.88;5.18;;;;;;;;;;5074721;28;20224;-66
2021/11/15 11:35:03;;;;;;;10.02;5.60;;;;;;;;;;5074353;28;20220;-66
2021/11/15 11:37:31;;;;;;;7.45;5.78;;;;;;;;;;5074262;28;20198;-66
2021/11/15 11:39:59;;;;;;;9.55;5.10;;;;;;;;;;5074208;28;20621;-67
2021/11/15 11:42:27;;;;;;;7.63;5.57;;;;;;;;;;5074290;28;20194;-67
2021/11/15 11:44:56;;;;;;;7.45;5.75;;;;;;;;;;5074269;28;20222;-66
2021/11/15 11:47:27;;;;;;;10.20;6.45;;;;;;;;;;5074300;28;20255;-67
2021/11/15 11:49:57;;;;;;;6.18;4.70;;;;;;;;;;5071724;28;20285;-66
2021/11/15 11:52:28;;;;;;;6.25;4.95;;;;;;;;;;5073956;28;20247;-67
2021/11/15 11:54:56;;;;;;;8.45;5.47;;;;;;;;;;5071863;28;20194;-66
2021/11/15 11:57:24;;;;;;;8.95;5.90;;;;;;;;;;5073744;28;20203;-66
2021/11/15 12:00:01;;;;;;;8.23;5.10;;;;;;;;;;5071035;28;20194;-66
2021/11/15 12:02:29;;;;;;;11.07;5.55;;;;;;;;;;5071895;28;20586;-67
2021/11/15 12:05:03;;;;;;;12.15;6.45;;;;;;;;;;5073759;28;20221;-66
2021/11/15 12:07:32;;;;;;;11.30;6.60;;;;;;;;;;5073312;28;20641;-66
2021/11/15 12:10:00;;;;;;;9.23;7.60;;;;;;;;;;5072497;28;20198;-66
2021/11/15 12:12:28;;;;;;;10.27;7.03;;;;;;;;;;5072568;28;20214;-66
2021/11/15 12:14:55;;;;;;;9.63;7.18;;;;;;;;;;5071317;28;20233;-67
2021/11/15 12:17:23;;;;;;;10.05;7.00;;;;;;;;;;5072737;28;20226;-68
2021/11/15 12:20:12;;;;;;;10.52;7.30;;;;;;;;;;5072725;28;20195;-67
2021/11/15 12:22:41;;;;;;;9.70;7.18;;;;;;;;;;5073018;28;20233;-67
2021/11/15 12:25:08;;;;;;;10.52;5.93;;;;;;;;;;5073042;28;20676;-67
2021/11/15 12:27:40;;;;;;;8.50;5.57;;;;;;;;;;5072773;28;20247;-67
2021/11/15 12:30:15;;;;;;;7.43;6.18;;;;;;;;;;5070213;28;20702;-67
2021/11/15 12:32:45;;;;;;;7.03;4.95;;;;;;;;;;5070493;28;20205;-67
2021/11/15 12:35:14;;;;;;;8.52;7.35;;;;;;;;;;5072575;28;20651;-68
2021/11/15 12:37:44;;;;;;;8.57;5.35;;;;;;;;;;5070029;28;20290;-67
2021/11/15 12:40:32;;;;;;;6.53;4.75;;;;;;;;;;5071104;28;20190;-68
2021/11/15 12:43:12;;;;;;;8.10;5.32;;;;;;;;;;5071765;28;20190;-68
2021/11/15 12:45:47;;;;;;;8.32;7.05;;;;;;;;;;5071615;28;20226;-67
2021/11/15 12:48:29;;;;;;;8.23;6.50;;;;;;;;;;5071833;28;20577;-67
2021/11/15 12:50:58;;;;;;;7.13;5.78;;;;;;;;;;5070588;28;20312;-67
2021/11/15 12:53:25;;;;;;;10.15;6.55;;;;;;;;;;5071238;28;20241;-66
2021/11/15 12:55:54;;;;;;;8.77;7.25;;;;;;;;;;5070745;28;20251;-66
2021/11/15 12:58:22;;;;;;;7.60;5.50;;;;;;;;;;5070005;28;20223;-67
2021/11/15 13:00:49;;;;;;;9.85;6.95;;;;;;;;;;5073845;28;20541;-67
2021/11/15 13:03:17;;;;;;;10.32;7.70;;;;;;;;;;5073420;28;20190;-67
2021/11/15 13:05:44;;;;;;;9.20;6.40;;;;;;;;;;5073063;28;20754;-66
2021/11/15 13:08:14;;;;;;;8.50;6.72;;;;;;;;;;5073591;28;20258;-66
2021/11/15 13:10:42;;;;;;;10.43;6.50;;;;;;;;;;5073306;28;20718;-68
2021/11/15 13:13:15;;;;;;;7.85;5.80;;;;;;;;;;5072478;28;20257;-66
2021/11/15 13:15:42;;;;;;;10.85;6.95;;;;;;;;;;5073383;28;20226;-66
2021/11/15 13:18:10;;;;;;;8.27;5.75;;;;;;;;;;5073103;28;20190;-67
2021/11/15 13:20:37;;;;;;;9.82;6.90;;;;;;;;;;5073356;28;20591;-66
2021/11/15 13:23:10;;;;;;;7.50;5.70;;;;;;;;;;5072502;28;20267;-67
2021/11/15 13:25:38;;;;;;;8.63;6.28;;;;;;;;;;5073184;28;20681;-67
2021/11/15 13:28:12;;;;;;;9.80;6.50;;;;;;;;;;5073222;28;20236;-67
2021/11/15 13:30:39;;;;;;;7.82;6.50;;;;;;;;;;5072983;28;20190;-66
2021/11/15 13:33:07;;;;;;;12.20;6.80;;;;;;;;;;5073039;28;20248;-66
2021/11/15 13:35:34;;;;;;;8.00;6.18;;;;;;;;;;5072764;28;20185;-67
2021/11/15 13:38:02;;;;;;;9.50;5.75;;;;;;;;;;5072817;28;20193;-67
2021/11/15 13:40:30;;;;;;;11.27;6.68;;;;;;;;;;5073089;28;20190;-67
2021/11/15 13:42:59;;;;;;;9.35;6.30;;;;;;;;;;5072355;28;20198;-67
2021/11/15 13:45:34;;;;;;;8.20;6.28;;;;;;;;;;5072515;28;20255;-67
2021/11/15 13:48:01;;;;;;;9.25;5.88;;;;;;;;;;5072468;28;20185;-67
2021/11/15 13:50:32;;;;;;;7.60;5.45;;;;;;;;;;5072454;28;20637;-66
2021/11/15 13:53:00;;;;;;;9.45;5.88;;;;;;;;;;5072844;28;20287;-67
2021/11/15 13:55:28;;;;;;;6.95;5.50;;;;;;;;;;5072302;28;20353;-66
2021/11/15 13:57:55;;;;;;;8.10;6.22;;;;;;;;;;5072616;28;20240;-67
2021/11/15 14:00:24;;;;;;;7.93;5.95;;;;;;;;;;5072458;28;20190;-67
2021/11/15 14:02:52;;;;;;;9.57;6.35;;;;;;;;;;5072025;28;20244;-67
2021/11/15 14:05:21;;;;;;;7.95;6.10;;;;;;;;;;5072320;28;20304;-67
2021/11/15 14:07:49;;;;;;;8.55;6.57;;;;;;;;;;5072702;28;20237;-67
2021/11/15 14:10:16;;;;;;;11.45;7.90;;;;;;;;;;5072415;28;20204;-67
2021/11/15 14:12:44;;;;;;;10.00;7.50;;;;;;;;;;5072210;28;20230;-67
2021/11/15 14:15:16;;;;;;;11.63;7.68;;;;;;;;;;5072215;28;20202;-67
2021/11/15 14:17:48;;;;;;;13.65;8.80;;;;;;;;;;5071226;28;20726;-66
2021/11/15 14:20:22;;;;;;;9.85;7.57;;;;;;;;;;5072116;28;20226;-67
2021/11/15 14:22:54;;;;;;;11.50;7.13;;;;;;;;;;5072218;28;20194;-68
2021/11/15 14:25:24;;;;;;;10.63;7.45;;;;;;;;;;5072220;28;20257;-67
2021/11/15 14:27:54;;;;;;;9.50;6.70;;;;;;;;;;5072655;28;20225;-66
2021/11/15 14:30:22;;;;;;;10.40;7.97;;;;;;;;;;5072088;28;20551;-68
2021/11/15 14:32:55;;;;;;;11.43;7.78;;;;;;;;;;5072034;28;20248;-67
2021/11/15 14:35:24;;;;;;;11.75;8.63;;;;;;;;;;5072593;28;20229;-66
2021/11/15 14:37:56;;;;;;;9.38;6.47;;;;;;;;;;5072161;28;20327;-67
2021/11/15 14:40:24;;;;;;;11.90;7.55;;;;;;;;;;5072200;28;20225;-67
2021/11/15 14:42:52;;;;;;;9.32;6.18;;;;;;;;;;5072267;28;20190;-66
2021/11/15 14:45:20;;;;;;;11.38;7.10;;;;;;;;;;5072045;28;20225;-67